Hallie, Wisconsin
Current Conditions -  °F | °C
As of 4:13 PM on Wednesday 28 Jan 2015 (Local Time) from KEAU Reporting Station
Haze Haze  
Wind Chill: 21°   Ceiling: 1500
Heat Index: 30°   Visibility: 6mi
Dew Point: 23°   Wind: 12mph
Humidity: 75%   Direction: 140°SE
Pressure: 29.83"   Gusts: NA
Location:  44.9743°N, 91.4379°W
Report Text: KEAU 282213Z 14010KT 6SM HZ BKN015 M01/M05 A2983 RMK AO2 T10111050
Loading
Personal Weather Stations






























Interactive Weather Map New forecast layout! Learn more

10-Day Weather Forecast

Advertisements
Track Severe Weather on mobile